sensor_id;sensor_type;location;lat;lon;timestamp;P1;durP1;ratioP1;P2;durP2;ratioP2
69588;SDS011;56792;50.644;17.984;2023-04-15T00:00:13;12.10;;;8.00;;
69588;SDS011;56792;50.644;17.984;2023-04-15T00:02:46;11.60;;;7.30;;
69588;SDS011;56792;50.644;17.984;2023-04-15T00:05:17;12.80;;;7.40;;
69588;SDS011;56792;50.644;17.984;2023-04-15T00:07:48;11.20;;;7.70;;
69588;SDS011;56792;50.644;17.984;2023-04-15T00:10:21;11.00;;;8.00;;
69588;SDS011;56792;50.644;17.984;2023-04-15T00:12:52;10.70;;;6.90;;
69588;SDS011;56792;50.644;17.984;2023-04-15T00:15:23;13.90;;;7.40;;
69588;SDS011;56792;50.644;17.984;2023-04-15T00:17:54;12.30;;;7.80;;
69588;SDS011;56792;50.644;17.984;2023-04-15T00:20:25;12.50;;;7.90;;
69588;SDS011;56792;50.644;17.984;2023-04-15T00:22:56;12.70;;;8.20;;
69588;SDS011;56792;50.644;17.984;2023-04-15T00:25:27;12.60;;;8.50;;
69588;SDS011;56792;50.644;17.984;2023-04-15T00:27:58;12.90;;;7.30;;
69588;SDS011;56792;50.644;17.984;2023-04-15T00:30:29;12.00;;;8.00;;
69588;SDS011;56792;50.644;17.984;2023-04-15T00:33:00;11.40;;;7.80;;
69588;SDS011;56792;50.644;17.984;2023-04-15T00:35:31;11.10;;;7.80;;
69588;SDS011;56792;50.644;17.984;2023-04-15T00:38:05;14.80;;;8.90;;
69588;SDS011;56792;50.644;17.984;2023-04-15T00:40:36;14.40;;;9.20;;
69588;SDS011;56792;50.644;17.984;2023-04-15T00:43:08;15.00;;;9.00;;
69588;SDS011;56792;50.644;17.984;2023-04-15T00:45:39;18.80;;;10.10;;
69588;SDS011;56792;50.644;17.984;2023-04-15T00:48:12;19.50;;;10.80;;
69588;SDS011;56792;50.644;17.984;2023-04-15T00:50:44;20.00;;;11.80;;
69588;SDS011;56792;50.644;17.984;2023-04-15T00:53:15;19.30;;;10.90;;
69588;SDS011;56792;50.644;17.984;2023-04-15T00:55:46;21.50;;;11.80;;
69588;SDS011;56792;50.644;17.984;2023-04-15T00:58:18;19.10;;;12.10;;
69588;SDS011;56792;50.644;17.984;2023-04-15T01:00:49;21.70;;;12.20;;
69588;SDS011;56792;50.644;17.984;2023-04-15T01:03:21;19.80;;;12.00;;
69588;SDS011;56792;50.644;17.984;2023-04-15T01:05:53;21.50;;;12.90;;
69588;SDS011;56792;50.644;17.984;2023-04-15T01:08:27;25.10;;;14.60;;
69588;SDS011;56792;50.644;17.984;2023-04-15T01:11:00;27.10;;;15.40;;
69588;SDS011;56792;50.644;17.984;2023-04-15T01:13:33;31.00;;;17.50;;
69588;SDS011;56792;50.644;17.984;2023-04-15T01:16:07;29.80;;;17.20;;
69588;SDS011;56792;50.644;17.984;2023-04-15T01:18:39;30.40;;;17.50;;
69588;SDS011;56792;50.644;17.984;2023-04-15T01:21:10;30.80;;;19.00;;
69588;SDS011;56792;50.644;17.984;2023-04-15T01:23:44;34.00;;;20.30;;
69588;SDS011;56792;50.644;17.984;2023-04-15T01:26:17;36.10;;;19.50;;
69588;SDS011;56792;50.644;17.984;2023-04-15T01:28:48;30.70;;;17.20;;
69588;SDS011;56792;50.644;17.984;2023-04-15T01:31:19;30.70;;;17.80;;
69588;SDS011;56792;50.644;17.984;2023-04-15T01:33:50;30.10;;;17.90;;
69588;SDS011;56792;50.644;17.984;2023-04-15T01:36:21;33.20;;;19.20;;
69588;SDS011;56792;50.644;17.984;2023-04-15T01:38:55;33.40;;;18.50;;
69588;SDS011;56792;50.644;17.984;2023-04-15T01:41:27;31.50;;;17.80;;
69588;SDS011;56792;50.644;17.984;2023-04-15T01:43:58;29.30;;;16.30;;
69588;SDS011;56792;50.644;17.984;2023-04-15T01:46:29;25.80;;;15.20;;
69588;SDS011;56792;50.644;17.984;2023-04-15T01:49:01;32.50;;;16.80;;
69588;SDS011;56792;50.644;17.984;2023-04-15T01:51:33;28.60;;;17.30;;
69588;SDS011;56792;50.644;17.984;2023-04-15T01:54:05;25.60;;;14.50;;
69588;SDS011;56792;50.644;17.984;2023-04-15T01:56:36;26.50;;;14.00;;
69588;SDS011;56792;50.644;17.984;2023-04-15T01:59:07;23.70;;;12.60;;
69588;SDS011;56792;50.644;17.984;2023-04-15T02:01:38;24.80;;;14.80;;
69588;SDS011;56792;50.644;17.984;2023-04-15T02:04:09;24.00;;;14.20;;
69588;SDS011;56792;50.644;17.984;2023-04-15T02:06:43;22.80;;;12.00;;
69588;SDS011;56792;50.644;17.984;2023-04-15T02:09:15;20.80;;;11.40;;
69588;SDS011;56792;50.644;17.984;2023-04-15T02:11:47;22.70;;;12.60;;
69588;SDS011;56792;50.644;17.984;2023-04-15T02:14:19;19.50;;;10.80;;
69588;SDS011;56792;50.644;17.984;2023-04-15T02:16:50;20.40;;;10.30;;
69588;SDS011;56792;50.644;17.984;2023-04-15T02:19:21;21.90;;;10.80;;
69588;SDS011;56792;50.644;17.984;2023-04-15T02:21:52;16.60;;;9.40;;
69588;SDS011;56792;50.644;17.984;2023-04-15T02:24:23;14.70;;;8.40;;
69588;SDS011;56792;50.644;17.984;2023-04-15T02:26:54;14.30;;;7.90;;
69588;SDS011;56792;50.644;17.984;2023-04-15T02:29:25;11.80;;;7.90;;
69588;SDS011;56792;50.644;17.984;2023-04-15T02:31:56;13.50;;;8.10;;
69588;SDS011;56792;50.644;17.984;2023-04-15T02:34:28;13.60;;;8.30;;
69588;SDS011;56792;50.644;17.984;2023-04-15T02:37:00;12.00;;;6.60;;
69588;SDS011;56792;50.644;17.984;2023-04-15T02:39:31;12.30;;;6.30;;
69588;SDS011;56792;50.644;17.984;2023-04-15T02:42:02;11.20;;;6.50;;
69588;SDS011;56792;50.644;17.984;2023-04-15T02:44:34;11.30;;;7.20;;
69588;SDS011;56792;50.644;17.984;2023-04-15T02:47:05;10.20;;;6.60;;
69588;SDS011;56792;50.644;17.984;2023-04-15T02:49:38;9.10;;;5.20;;
69588;SDS011;56792;50.644;17.984;2023-04-15T02:52:09;8.30;;;5.50;;
69588;SDS011;56792;50.644;17.984;2023-04-15T02:54:41;10.20;;;6.00;;
69588;SDS011;56792;50.644;17.984;2023-04-15T02:57:11;8.10;;;5.00;;
69588;SDS011;56792;50.644;17.984;2023-04-15T02:59:43;8.70;;;5.20;;
69588;SDS011;56792;50.644;17.984;2023-04-15T03:02:15;9.00;;;5.40;;
69588;SDS011;56792;50.644;17.984;2023-04-15T03:04:46;7.40;;;5.10;;
69588;SDS011;56792;50.644;17.984;2023-04-15T03:07:18;7.50;;;4.70;;
69588;SDS011;56792;50.644;17.984;2023-04-15T03:09:49;6.50;;;3.70;;
69588;SDS011;56792;50.644;17.984;2023-04-15T03:12:20;6.40;;;3.90;;
69588;SDS011;56792;50.644;17.984;2023-04-15T03:14:53;6.30;;;3.50;;
69588;SDS011;56792;50.644;17.984;2023-04-15T03:17:27;7.70;;;4.70;;
69588;SDS011;56792;50.644;17.984;2023-04-15T03:19:59;6.80;;;4.00;;
69588;SDS011;56792;50.644;17.984;2023-04-15T03:22:32;5.80;;;4.40;;
69588;SDS011;56792;50.644;17.984;2023-04-15T03:25:04;5.60;;;3.80;;
69588;SDS011;56792;50.644;17.984;2023-04-15T03:27:36;6.00;;;4.00;;
69588;SDS011;56792;50.644;17.984;2023-04-15T03:30:09;5.20;;;3.80;;
69588;SDS011;56792;50.644;17.984;2023-04-15T03:32:41;4.70;;;3.10;;
69588;SDS011;56792;50.644;17.984;2023-04-15T03:35:12;6.50;;;3.40;;
69588;SDS011;56792;50.644;17.984;2023-04-15T03:37:44;5.20;;;3.10;;
69588;SDS011;56792;50.644;17.984;2023-04-15T03:40:16;5.00;;;3.30;;
69588;SDS011;56792;50.644;17.984;2023-04-15T03:42:47;5.60;;;3.00;;
69588;SDS011;56792;50.644;17.984;2023-04-15T03:45:18;5.50;;;3.10;;
69588;SDS011;56792;50.644;17.984;2023-04-15T03:47:49;5.10;;;3.20;;
69588;SDS011;56792;50.644;17.984;2023-04-15T03:50:20;5.80;;;3.30;;
69588;SDS011;56792;50.644;17.984;2023-04-15T03:52:51;5.40;;;3.70;;
69588;SDS011;56792;50.644;17.984;2023-04-15T03:55:22;6.80;;;3.70;;
69588;SDS011;56792;50.644;17.984;2023-04-15T03:57:53;6.70;;;3.70;;
69588;SDS011;56792;50.644;17.984;2023-04-15T04:00:24;6.50;;;3.90;;
69588;SDS011;56792;50.644;17.984;2023-04-15T04:02:55;7.90;;;3.50;;
69588;SDS011;56792;50.644;17.984;2023-04-15T04:05:26;6.00;;;3.60;;
69588;SDS011;56792;50.644;17.984;2023-04-15T04:07:57;4.90;;;2.90;;
69588;SDS011;56792;50.644;17.984;2023-04-15T04:10:27;5.90;;;4.10;;
69588;SDS011;56792;50.644;17.984;2023-04-15T04:12:59;5.50;;;2.90;;
69588;SDS011;56792;50.644;17.984;2023-04-15T04:15:29;5.40;;;3.30;;
69588;SDS011;56792;50.644;17.984;2023-04-15T04:18:00;5.30;;;3.30;;
69588;SDS011;56792;50.644;17.984;2023-04-15T04:20:32;5.30;;;3.10;;
69588;SDS011;56792;50.644;17.984;2023-04-15T04:23:03;4.70;;;3.00;;
69588;SDS011;56792;50.644;17.984;2023-04-15T04:25:34;6.40;;;3.40;;
69588;SDS011;56792;50.644;17.984;2023-04-15T04:28:05;5.60;;;3.20;;
69588;SDS011;56792;50.644;17.984;2023-04-15T04:30:36;6.30;;;4.10;;
69588;SDS011;56792;50.644;17.984;2023-04-15T04:33:08;6.80;;;4.10;;
69588;SDS011;56792;50.644;17.984;2023-04-15T04:35:39;5.80;;;3.60;;
69588;SDS011;56792;50.644;17.984;2023-04-15T04:38:10;5.50;;;3.40;;
69588;SDS011;56792;50.644;17.984;2023-04-15T04:40:41;5.10;;;3.30;;
69588;SDS011;56792;50.644;17.984;2023-04-15T04:43:12;6.30;;;3.60;;
69588;SDS011;56792;50.644;17.984;2023-04-15T04:45:44;5.50;;;3.50;;
69588;SDS011;56792;50.644;17.984;2023-04-15T04:48:15;6.30;;;4.40;;
69588;SDS011;56792;50.644;17.984;2023-04-15T04:50:46;5.30;;;3.30;;
69588;SDS011;56792;50.644;17.984;2023-04-15T04:53:17;6.20;;;3.10;;
69588;SDS011;56792;50.644;17.984;2023-04-15T04:55:48;5.40;;;3.10;;
69588;SDS011;56792;50.644;17.984;2023-04-15T04:58:19;6.90;;;4.50;;
69588;SDS011;56792;50.644;17.984;2023-04-15T05:00:50;5.90;;;3.70;;
69588;SDS011;56792;50.644;17.984;2023-04-15T05:03:21;5.30;;;3.40;;
69588;SDS011;56792;50.644;17.984;2023-04-15T05:05:52;6.50;;;3.50;;
69588;SDS011;56792;50.644;17.984;2023-04-15T05:08:23;6.50;;;3.80;;
69588;SDS011;56792;50.644;17.984;2023-04-15T05:10:54;7.10;;;3.60;;
69588;SDS011;56792;50.644;17.984;2023-04-15T05:13:25;5.80;;;3.20;;
69588;SDS011;56792;50.644;17.984;2023-04-15T05:15:57;6.00;;;3.90;;
69588;SDS011;56792;50.644;17.984;2023-04-15T05:18:28;6.20;;;3.40;;
69588;SDS011;56792;50.644;17.984;2023-04-15T05:20:59;7.40;;;3.90;;
69588;SDS011;56792;50.644;17.984;2023-04-15T05:23:30;7.70;;;4.20;;
69588;SDS011;56792;50.644;17.984;2023-04-15T05:26:01;6.60;;;3.80;;
69588;SDS011;56792;50.644;17.984;2023-04-15T05:28:33;6.60;;;4.20;;
69588;SDS011;56792;50.644;17.984;2023-04-15T05:31:04;6.10;;;3.80;;
69588;SDS011;56792;50.644;17.984;2023-04-15T05:33:35;5.40;;;3.60;;
69588;SDS011;56792;50.644;17.984;2023-04-15T05:36:08;6.30;;;3.80;;
69588;SDS011;56792;50.644;17.984;2023-04-15T05:38:39;6.10;;;3.60;;
69588;SDS011;56792;50.644;17.984;2023-04-15T05:41:10;5.40;;;3.40;;
69588;SDS011;56792;50.644;17.984;2023-04-15T05:43:42;4.80;;;3.00;;
69588;SDS011;56792;50.644;17.984;2023-04-15T05:46:13;5.30;;;3.30;;
69588;SDS011;56792;50.644;17.984;2023-04-15T05:48:44;5.30;;;3.30;;
69588;SDS011;56792;50.644;17.984;2023-04-15T05:51:15;8.30;;;3.70;;
69588;SDS011;56792;50.644;17.984;2023-04-15T05:53:46;6.40;;;3.70;;
69588;SDS011;56792;50.644;17.984;2023-04-15T05:56:17;6.80;;;3.70;;
69588;SDS011;56792;50.644;17.984;2023-04-15T05:58:48;6.30;;;3.40;;
69588;SDS011;56792;50.644;17.984;2023-04-15T06:01:19;6.30;;;3.50;;
69588;SDS011;56792;50.644;17.984;2023-04-15T06:03:51;6.20;;;3.50;;
69588;SDS011;56792;50.644;17.984;2023-04-15T06:06:22;5.40;;;3.30;;
69588;SDS011;56792;50.644;17.984;2023-04-15T06:08:54;6.70;;;4.00;;
69588;SDS011;56792;50.644;17.984;2023-04-15T06:11:25;7.10;;;4.10;;
69588;SDS011;56792;50.644;17.984;2023-04-15T06:13:56;6.60;;;3.80;;
69588;SDS011;56792;50.644;17.984;2023-04-15T06:16:27;7.90;;;3.60;;
69588;SDS011;56792;50.644;17.984;2023-04-15T06:18:58;6.90;;;3.60;;
69588;SDS011;56792;50.644;17.984;2023-04-15T06:21:30;6.40;;;3.60;;
69588;SDS011;56792;50.644;17.984;2023-04-15T06:24:01;7.50;;;4.30;;
69588;SDS011;56792;50.644;17.984;2023-04-15T06:26:32;7.80;;;4.00;;
69588;SDS011;56792;50.644;17.984;2023-04-15T06:29:03;6.30;;;3.80;;
69588;SDS011;56792;50.644;17.984;2023-04-15T06:31:34;4.60;;;3.00;;
69588;SDS011;56792;50.644;17.984;2023-04-15T06:34:05;4.60;;;3.00;;
69588;SDS011;56792;50.644;17.984;2023-04-15T06:36:36;3.90;;;3.00;;
69588;SDS011;56792;50.644;17.984;2023-04-15T06:39:07;4.90;;;3.10;;
69588;SDS011;56792;50.644;17.984;2023-04-15T06:41:37;4.20;;;2.70;;
69588;SDS011;56792;50.644;17.984;2023-04-15T06:44:09;4.30;;;2.80;;
69588;SDS011;56792;50.644;17.984;2023-04-15T06:46:39;3.90;;;2.30;;
69588;SDS011;56792;50.644;17.984;2023-04-15T06:49:10;4.40;;;2.70;;
69588;SDS011;56792;50.644;17.984;2023-04-15T06:51:42;3.80;;;2.20;;
69588;SDS011;56792;50.644;17.984;2023-04-15T06:54:13;3.70;;;2.50;;
69588;SDS011;56792;50.644;17.984;2023-04-15T06:56:44;4.70;;;2.20;;
69588;SDS011;56792;50.644;17.984;2023-04-15T06:59:15;6.30;;;2.10;;
69588;SDS011;56792;50.644;17.984;2023-04-15T07:01:46;4.90;;;2.80;;
69588;SDS011;56792;50.644;17.984;2023-04-15T07:04:17;4.30;;;2.60;;
69588;SDS011;56792;50.644;17.984;2023-04-15T07:06:48;3.90;;;2.20;;
69588;SDS011;56792;50.644;17.984;2023-04-15T07:09:20;3.50;;;1.90;;
69588;SDS011;56792;50.644;17.984;2023-04-15T07:11:51;3.40;;;2.00;;
69588;SDS011;56792;50.644;17.984;2023-04-15T07:14:22;3.50;;;2.00;;
69588;SDS011;56792;50.644;17.984;2023-04-15T07:16:53;4.80;;;2.00;;
69588;SDS011;56792;50.644;17.984;2023-04-15T07:19:24;3.80;;;2.70;;
69588;SDS011;56792;50.644;17.984;2023-04-15T07:21:55;3.90;;;2.40;;
69588;SDS011;56792;50.644;17.984;2023-04-15T07:24:26;3.90;;;2.10;;
69588;SDS011;56792;50.644;17.984;2023-04-15T07:26:58;4.50;;;1.90;;
69588;SDS011;56792;50.644;17.984;2023-04-15T07:29:29;4.70;;;2.40;;
69588;SDS011;56792;50.644;17.984;2023-04-15T07:32:00;4.80;;;2.70;;
69588;SDS011;56792;50.644;17.984;2023-04-15T07:34:31;4.10;;;2.30;;
69588;SDS011;56792;50.644;17.984;2023-04-15T07:37:02;3.50;;;2.20;;
69588;SDS011;56792;50.644;17.984;2023-04-15T07:39:33;4.50;;;3.00;;
69588;SDS011;56792;50.644;17.984;2023-04-15T07:42:04;4.50;;;2.70;;
69588;SDS011;56792;50.644;17.984;2023-04-15T07:44:35;4.30;;;2.10;;
69588;SDS011;56792;50.644;17.984;2023-04-15T07:47:06;3.70;;;2.30;;
69588;SDS011;56792;50.644;17.984;2023-04-15T07:49:37;3.20;;;1.70;;
69588;SDS011;56792;50.644;17.984;2023-04-15T07:52:10;3.30;;;1.70;;
69588;SDS011;56792;50.644;17.984;2023-04-15T07:54:41;4.30;;;1.90;;
69588;SDS011;56792;50.644;17.984;2023-04-15T07:57:11;3.50;;;2.20;;
69588;SDS011;56792;50.644;17.984;2023-04-15T07:59:43;3.30;;;2.20;;
69588;SDS011;56792;50.644;17.984;2023-04-15T08:02:14;6.20;;;2.50;;
69588;SDS011;56792;50.644;17.984;2023-04-15T08:04:45;3.60;;;2.70;;
69588;SDS011;56792;50.644;17.984;2023-04-15T08:07:16;4.10;;;2.40;;
69588;SDS011;56792;50.644;17.984;2023-04-15T08:09:48;4.40;;;2.10;;
69588;SDS011;56792;50.644;17.984;2023-04-15T08:12:19;3.90;;;2.00;;
69588;SDS011;56792;50.644;17.984;2023-04-15T08:14:50;4.30;;;2.20;;
69588;SDS011;56792;50.644;17.984;2023-04-15T08:17:21;3.40;;;2.00;;
69588;SDS011;56792;50.644;17.984;2023-04-15T08:19:52;3.60;;;2.20;;
69588;SDS011;56792;50.644;17.984;2023-04-15T08:22:24;4.10;;;2.60;;
69588;SDS011;56792;50.644;17.984;2023-04-15T08:24:55;3.10;;;2.40;;
69588;SDS011;56792;50.644;17.984;2023-04-15T08:27:26;4.00;;;2.10;;
69588;SDS011;56792;50.644;17.984;2023-04-15T08:29:57;4.20;;;3.10;;
69588;SDS011;56792;50.644;17.984;2023-04-15T08:32:28;3.50;;;2.60;;
69588;SDS011;56792;50.644;17.984;2023-04-15T08:34:59;4.70;;;2.80;;
69588;SDS011;56792;50.644;17.984;2023-04-15T08:37:30;3.20;;;2.50;;
69588;SDS011;56792;50.644;17.984;2023-04-15T08:40:01;3.90;;;3.00;;
69588;SDS011;56792;50.644;17.984;2023-04-15T08:42:40;3.80;;;2.00;;
69588;SDS011;56792;50.644;17.984;2023-04-15T08:45:13;3.50;;;2.40;;
69588;SDS011;56792;50.644;17.984;2023-04-15T08:47:48;3.40;;;2.00;;
69588;SDS011;56792;50.644;17.984;2023-04-15T08:50:25;3.70;;;1.90;;
69588;SDS011;56792;50.644;17.984;2023-04-15T08:53:00;3.80;;;2.20;;
69588;SDS011;56792;50.644;17.984;2023-04-15T08:55:33;3.90;;;2.50;;
69588;SDS011;56792;50.644;17.984;2023-04-15T08:58:12;3.60;;;2.50;;
69588;SDS011;56792;50.644;17.984;2023-04-15T09:00:44;3.70;;;1.90;;
69588;SDS011;56792;50.644;17.984;2023-04-15T09:03:16;3.10;;;1.90;;
69588;SDS011;56792;50.644;17.984;2023-04-15T09:05:48;3.60;;;2.10;;
69588;SDS011;56792;50.644;17.984;2023-04-15T09:08:20;2.90;;;1.70;;
69588;SDS011;56792;50.644;17.984;2023-04-15T09:10:51;3.10;;;1.90;;
69588;SDS011;56792;50.644;17.984;2023-04-15T09:13:23;2.90;;;1.70;;
69588;SDS011;56792;50.644;17.984;2023-04-15T09:15:54;3.90;;;2.10;;
69588;SDS011;56792;50.644;17.984;2023-04-15T09:18:30;2.90;;;1.90;;
69588;SDS011;56792;50.644;17.984;2023-04-15T09:21:08;3.50;;;1.70;;
69588;SDS011;56792;50.644;17.984;2023-04-15T09:23:53;3.60;;;2.00;;
69588;SDS011;56792;50.644;17.984;2023-04-15T09:26:33;3.80;;;2.00;;
69588;SDS011;56792;50.644;17.984;2023-04-15T09:29:08;4.70;;;1.60;;
69588;SDS011;56792;50.644;17.984;2023-04-15T09:31:40;4.00;;;1.90;;
69588;SDS011;56792;50.644;17.984;2023-04-15T09:34:11;5.10;;;2.50;;
69588;SDS011;56792;50.644;17.984;2023-04-15T09:36:56;3.60;;;2.30;;
69588;SDS011;56792;50.644;17.984;2023-04-15T09:39:27;3.60;;;1.60;;
69588;SDS011;56792;50.644;17.984;2023-04-15T09:42:13;3.20;;;1.70;;
69588;SDS011;56792;50.644;17.984;2023-04-15T09:44:44;2.50;;;1.30;;
69588;SDS011;56792;50.644;17.984;2023-04-15T09:47:28;3.40;;;3.10;;
69588;SDS011;56792;50.644;17.984;2023-04-15T09:50:00;3.20;;;1.40;;
69588;SDS011;56792;50.644;17.984;2023-04-15T09:52:31;2.90;;;1.90;;
69588;SDS011;56792;50.644;17.984;2023-04-15T09:55:11;3.30;;;2.80;;
69588;SDS011;56792;50.644;17.984;2023-04-15T09:57:43;3.10;;;2.40;;
69588;SDS011;56792;50.644;17.984;2023-04-15T10:00:16;3.90;;;2.30;;
69588;SDS011;56792;50.644;17.984;2023-04-15T10:02:47;3.30;;;2.40;;
69588;SDS011;56792;50.644;17.984;2023-04-15T10:05:19;3.70;;;3.40;;
69588;SDS011;56792;50.644;17.984;2023-04-15T10:07:50;4.00;;;3.50;;
69588;SDS011;56792;50.644;17.984;2023-04-15T10:10:21;4.50;;;4.10;;
69588;SDS011;56792;50.644;17.984;2023-04-15T10:12:52;4.20;;;3.10;;
69588;SDS011;56792;50.644;17.984;2023-04-15T10:15:24;4.10;;;3.70;;
69588;SDS011;56792;50.644;17.984;2023-04-15T10:17:57;3.70;;;3.40;;
69588;SDS011;56792;50.644;17.984;2023-04-15T10:20:32;3.20;;;2.70;;
69588;SDS011;56792;50.644;17.984;2023-04-15T10:23:04;3.70;;;3.30;;
69588;SDS011;56792;50.644;17.984;2023-04-15T10:25:37;4.30;;;3.90;;
69588;SDS011;56792;50.644;17.984;2023-04-15T10:28:08;4.70;;;3.10;;
69588;SDS011;56792;50.644;17.984;2023-04-15T10:30:39;3.80;;;2.60;;
69588;SDS011;56792;50.644;17.984;2023-04-15T10:33:11;4.20;;;3.80;;
69588;SDS011;56792;50.644;17.984;2023-04-15T10:35:44;3.90;;;3.50;;
69588;SDS011;56792;50.644;17.984;2023-04-15T10:38:37;5.80;;;3.50;;
69588;SDS011;56792;50.644;17.984;2023-04-15T10:41:19;3.50;;;2.60;;
69588;SDS011;56792;50.644;17.984;2023-04-15T10:43:54;4.60;;;3.40;;
69588;SDS011;56792;50.644;17.984;2023-04-15T10:46:37;4.70;;;4.20;;
69588;SDS011;56792;50.644;17.984;2023-04-15T10:49:10;4.50;;;4.10;;
69588;SDS011;56792;50.644;17.984;2023-04-15T10:51:42;4.90;;;4.50;;
69588;SDS011;56792;50.644;17.984;2023-04-15T10:54:16;4.60;;;4.20;;
69588;SDS011;56792;50.644;17.984;2023-04-15T10:57:13;4.60;;;3.90;;
69588;SDS011;56792;50.644;17.984;2023-04-15T11:00:08;5.20;;;4.80;;
69588;SDS011;56792;50.644;17.984;2023-04-15T11:02:45;5.20;;;4.70;;
69588;SDS011;56792;50.644;17.984;2023-04-15T11:05:21;5.80;;;5.30;;
69588;SDS011;56792;50.644;17.984;2023-04-15T11:08:12;6.00;;;5.50;;
69588;SDS011;56792;50.644;17.984;2023-04-15T11:10:53;5.70;;;5.20;;
69588;SDS011;56792;50.644;17.984;2023-04-15T11:13:25;6.20;;;5.70;;
69588;SDS011;56792;50.644;17.984;2023-04-15T11:16:02;6.00;;;5.50;;
69588;SDS011;56792;50.644;17.984;2023-04-15T11:18:35;5.60;;;5.10;;
69588;SDS011;56792;50.644;17.984;2023-04-15T11:21:07;6.30;;;5.80;;
69588;SDS011;56792;50.644;17.984;2023-04-15T11:23:40;4.40;;;4.00;;
69588;SDS011;56792;50.644;17.984;2023-04-15T11:26:14;4.60;;;4.20;;
69588;SDS011;56792;50.644;17.984;2023-04-15T11:28:45;6.10;;;5.60;;
69588;SDS011;56792;50.644;17.984;2023-04-15T11:31:17;6.00;;;5.50;;
69588;SDS011;56792;50.644;17.984;2023-04-15T11:33:56;6.10;;;5.60;;
69588;SDS011;56792;50.644;17.984;2023-04-15T11:36:29;5.30;;;4.90;;
69588;SDS011;56792;50.644;17.984;2023-04-15T11:39:00;5.80;;;5.40;;
69588;SDS011;56792;50.644;17.984;2023-04-15T11:41:35;5.50;;;5.00;;
69588;SDS011;56792;50.644;17.984;2023-04-15T11:44:16;4.30;;;3.90;;
69588;SDS011;56792;50.644;17.984;2023-04-15T11:46:47;4.20;;;3.40;;
69588;SDS011;56792;50.644;17.984;2023-04-15T11:49:29;4.40;;;3.20;;
69588;SDS011;56792;50.644;17.984;2023-04-15T11:52:01;3.80;;;2.80;;
69588;SDS011;56792;50.644;17.984;2023-04-15T11:54:40;4.10;;;3.20;;
69588;SDS011;56792;50.644;17.984;2023-04-15T11:57:11;3.20;;;2.80;;
69588;SDS011;56792;50.644;17.984;2023-04-15T11:59:43;3.90;;;3.40;;
69588;SDS011;56792;50.644;17.984;2023-04-15T12:02:15;3.80;;;2.50;;
69588;SDS011;56792;50.644;17.984;2023-04-15T12:04:46;3.60;;;2.80;;
69588;SDS011;56792;50.644;17.984;2023-04-15T12:07:17;5.10;;;4.10;;
69588;SDS011;56792;50.644;17.984;2023-04-15T12:09:55;3.60;;;2.10;;
69588;SDS011;56792;50.644;17.984;2023-04-15T12:12:29;3.70;;;2.90;;
69588;SDS011;56792;50.644;17.984;2023-04-15T12:15:00;3.50;;;2.30;;
69588;SDS011;56792;50.644;17.984;2023-04-15T12:17:31;4.70;;;3.80;;
69588;SDS011;56792;50.644;17.984;2023-04-15T12:20:04;4.80;;;3.10;;
69588;SDS011;56792;50.644;17.984;2023-04-15T12:22:38;5.40;;;2.90;;
69588;SDS011;56792;50.644;17.984;2023-04-15T12:25:10;4.20;;;2.70;;
69588;SDS011;56792;50.644;17.984;2023-04-15T12:27:41;3.80;;;2.80;;
69588;SDS011;56792;50.644;17.984;2023-04-15T12:30:21;3.70;;;2.80;;
69588;SDS011;56792;50.644;17.984;2023-04-15T12:32:53;4.40;;;3.50;;
69588;SDS011;56792;50.644;17.984;2023-04-15T12:35:25;4.70;;;2.40;;
69588;SDS011;56792;50.644;17.984;2023-04-15T12:37:56;4.20;;;2.70;;
69588;SDS011;56792;50.644;17.984;2023-04-15T12:40:27;3.40;;;2.40;;
69588;SDS011;56792;50.644;17.984;2023-04-15T12:42:58;3.20;;;2.00;;
69588;SDS011;56792;50.644;17.984;2023-04-15T12:45:29;3.70;;;1.90;;
69588;SDS011;56792;50.644;17.984;2023-04-15T12:48:00;3.50;;;1.80;;
69588;SDS011;56792;50.644;17.984;2023-04-15T12:50:31;5.30;;;2.20;;
69588;SDS011;56792;50.644;17.984;2023-04-15T12:53:02;4.40;;;2.60;;
69588;SDS011;56792;50.644;17.984;2023-04-15T12:55:33;4.80;;;2.20;;
69588;SDS011;56792;50.644;17.984;2023-04-15T12:58:04;3.60;;;2.50;;
69588;SDS011;56792;50.644;17.984;2023-04-15T13:00:36;3.40;;;2.20;;
69588;SDS011;56792;50.644;17.984;2023-04-15T13:03:07;3.60;;;2.30;;
69588;SDS011;56792;50.644;17.984;2023-04-15T13:05:39;3.50;;;2.30;;
69588;SDS011;56792;50.644;17.984;2023-04-15T13:08:10;3.60;;;2.70;;
69588;SDS011;56792;50.644;17.984;2023-04-15T13:10:41;4.90;;;2.50;;
69588;SDS011;56792;50.644;17.984;2023-04-15T13:13:12;3.20;;;2.40;;
69588;SDS011;56792;50.644;17.984;2023-04-15T13:15:43;3.60;;;2.30;;
69588;SDS011;56792;50.644;17.984;2023-04-15T13:18:14;4.70;;;2.40;;
69588;SDS011;56792;50.644;17.984;2023-04-15T13:20:45;4.80;;;2.90;;
69588;SDS011;56792;50.644;17.984;2023-04-15T13:23:16;5.10;;;2.60;;
69588;SDS011;56792;50.644;17.984;2023-04-15T13:25:48;3.80;;;2.50;;
69588;SDS011;56792;50.644;17.984;2023-04-15T13:28:19;3.50;;;2.10;;
69588;SDS011;56792;50.644;17.984;2023-04-15T13:30:50;4.40;;;2.70;;
69588;SDS011;56792;50.644;17.984;2023-04-15T13:33:21;4.70;;;2.80;;
69588;SDS011;56792;50.644;17.984;2023-04-15T13:35:52;3.50;;;2.40;;
69588;SDS011;56792;50.644;17.984;2023-04-15T13:38:23;3.30;;;2.50;;
69588;SDS011;56792;50.644;17.984;2023-04-15T13:40:54;4.20;;;2.50;;
69588;SDS011;56792;50.644;17.984;2023-04-15T13:43:25;5.50;;;2.30;;
69588;SDS011;56792;50.644;17.984;2023-04-15T13:45:56;4.80;;;2.30;;
69588;SDS011;56792;50.644;17.984;2023-04-15T13:48:27;3.60;;;2.10;;
69588;SDS011;56792;50.644;17.984;2023-04-15T13:50:58;3.50;;;2.30;;
69588;SDS011;56792;50.644;17.984;2023-04-15T13:53:29;4.60;;;2.70;;
69588;SDS011;56792;50.644;17.984;2023-04-15T13:56:00;3.60;;;2.20;;
69588;SDS011;56792;50.644;17.984;2023-04-15T13:58:31;6.20;;;4.80;;
69588;SDS011;56792;50.644;17.984;2023-04-15T14:01:02;5.60;;;3.10;;
69588;SDS011;56792;50.644;17.984;2023-04-15T14:03:34;3.70;;;2.50;;
69588;SDS011;56792;50.644;17.984;2023-04-15T14:06:06;4.80;;;2.60;;
69588;SDS011;56792;50.644;17.984;2023-04-15T14:08:37;4.00;;;2.70;;
69588;SDS011;56792;50.644;17.984;2023-04-15T14:11:08;4.80;;;2.80;;
69588;SDS011;56792;50.644;17.984;2023-04-15T14:13:39;7.00;;;2.80;;
69588;SDS011;56792;50.644;17.984;2023-04-15T14:16:10;4.00;;;2.70;;
69588;SDS011;56792;50.644;17.984;2023-04-15T14:18:41;4.30;;;2.80;;
69588;SDS011;56792;50.644;17.984;2023-04-15T14:21:13;3.80;;;2.60;;
69588;SDS011;56792;50.644;17.984;2023-04-15T14:23:44;5.20;;;3.20;;
69588;SDS011;56792;50.644;17.984;2023-04-15T14:26:15;5.30;;;2.80;;
69588;SDS011;56792;50.644;17.984;2023-04-15T14:28:46;6.20;;;4.90;;
69588;SDS011;56792;50.644;17.984;2023-04-15T14:31:19;3.90;;;2.40;;
69588;SDS011;56792;50.644;17.984;2023-04-15T14:33:50;4.50;;;2.40;;
69588;SDS011;56792;50.644;17.984;2023-04-15T14:36:21;4.40;;;2.60;;
69588;SDS011;56792;50.644;17.984;2023-04-15T14:38:53;4.50;;;3.10;;
69588;SDS011;56792;50.644;17.984;2023-04-15T14:41:24;5.60;;;2.10;;
69588;SDS011;56792;50.644;17.984;2023-04-15T14:43:55;7.90;;;3.40;;
69588;SDS011;56792;50.644;17.984;2023-04-15T14:46:26;5.20;;;2.50;;
69588;SDS011;56792;50.644;17.984;2023-04-15T14:48:57;5.10;;;2.40;;
69588;SDS011;56792;50.644;17.984;2023-04-15T14:51:28;6.50;;;2.60;;
69588;SDS011;56792;50.644;17.984;2023-04-15T14:53:59;8.60;;;4.30;;
69588;SDS011;56792;50.644;17.984;2023-04-15T14:56:30;4.40;;;2.10;;
69588;SDS011;56792;50.644;17.984;2023-04-15T14:59:01;3.30;;;2.10;;